Latest Weather Observations for Albany Airport

IDW60801

Issued at 6:02 am WST Monday 27 April 2015 (issued every 30 minutes, with the page automatically refreshed every 10 minutes)

About weather observations | Map of weather stations | Latest weather observations for WA | Other Formats
Station Details ID: 009999 Name: ALBANY AIRPORT Lat: -34.94 Lon: 117.82 Height: 68.4 m
Data from the previous 72 hours. | See also: Recent months at Albany Airport
Date/Time
WST
Temp
°C
App
Temp
°C
Dew
Point
Rel
Hum
%
Delta-T
°C
Wind Press
QNH
hPa
Press
MSL
hPa
Rain
since 9 am
mm
Dir
 
Spd
km/h
Gust
km/h
Spd
kts
Gust
kts
27/05:53am 8.2 5.6 7.8 97 0.2 E 11 11 6 6 1028.3 - 0.0
27/05:30am 9.7 7.9 9.3 97 0.2 ENE 9 11 5 6 1028.3 - 0.0
27/05:00am 10.0 7.9 9.6 97 0.2 NE 11 13 6 7 1028.3 - 0.0
27/04:30am 10.0 7.9 9.6 97 0.2 NE 11 15 6 8 1028.2 - 0.0
27/04:16am 9.5 7.2 9.1 97 0.2 NE 11 13 6 7 1028.1 - 0.0
27/04:00am 8.9 6.9 8.5 97 0.2 ENE 9 11 5 6 1028.1 - 0.0
27/03:57am 8.8 6.8 8.6 99 0.1 ENE 9 11 5 6 1028.1 - 0.0
27/03:35am 9.4 7.2 9.2 99 0.1 NE 11 13 6 7 1028.0 - 0.0
27/03:30am 9.1 7.2 8.9 99 0.1 NE 9 13 5 7 1028.1 - 0.0
27/03:01am 8.6 6.5 8.2 97 0.2 NE 9 11 5 6 1028.1 - 0.0
27/03:00am 8.3 6.2 8.1 99 0.1 NE 9 11 5 6 1028.1 1028.1 0.0
27/02:30am 9.1 7.2 9.1 100 0.0 ENE 9 9 5 5 1028.2 - 0.0
27/02:10am 9.6 7.4 9.4 99 0.1 ENE 11 13 6 7 1028.4 - 0.0
27/02:00am 9.7 7.9 9.3 97 0.2 NE 9 13 5 7 1028.3 - 0.0
27/01:50am 8.7 7.0 8.3 97 0.2 ENE 7 11 4 6 1028.3 - 0.0
27/01:30am 10.0 8.2 9.6 97 0.2 NNE 9 9 5 5 1028.4 - 0.0
27/01:00am 9.9 7.7 9.3 96 0.3 NE 11 13 6 7 1028.5 - 0.0
27/12:30am 9.2 6.8 8.8 97 0.2 NNE 11 13 6 7 1028.5 - 0.0
27/12:00am 10.4 8.7 10.0 97 0.2 ENE 9 11 5 6 1028.7 1028.7 0.0
 
Date/Time
WST
Temp
°C
App
Temp
°C
Dew
Point
Rel
Hum
%
Delta-T
°C
Wind Press
QNH
hPa
Press
MSL
hPa
Rain
since 9 am
mm
Dir
 
Spd
km/h
Gust
km/h
Spd
kts
Gust
kts
26/11:30pm 10.4 8.3 9.6 95 0.4 ENE 11 13 6 7 1028.7 - 0.0
26/11:00pm 10.8 8.7 9.6 92 0.6 ENE 11 13 6 7 1028.9 - 0.0
26/10:30pm 10.6 8.1 9.6 93 0.5 E 13 13 7 7 1029.0 - 0.0
26/10:00pm 11.3 8.9 9.9 91 0.7 ENE 13 15 7 8 1029.0 - 0.0
26/09:30pm 10.9 8.8 9.7 92 0.6 ENE 11 13 6 7 1029.1 - 0.0
26/09:00pm 11.5 9.1 9.9 90 0.8 E 13 13 7 7 1028.9 1028.9 0.0
26/08:30pm 12.1 9.7 10.1 87 1.0 E 13 15 7 8 1028.7 - 0.0
26/08:00pm 13.1 10.8 10.4 84 1.4 E 13 17 7 9 1028.6 - 0.0
26/07:30pm 12.3 10.0 10.4 88 1.0 ENE 13 17 7 9 1028.6 - 0.0
26/07:00pm 13.4 11.1 10.5 82 1.5 E 13 19 7 10 1028.4 - 0.0
26/06:30pm 14.3 11.7 10.7 79 1.9 E 15 20 8 11 1028.1 - 0.0
26/06:00pm 14.7 11.8 11.1 79 1.9 E 17 20 9 11 1028.0 1028.0 0.0
26/05:30pm 14.8 12.1 11.6 81 1.7 ESE 17 24 9 13 1027.8 - 0.0
26/05:00pm 16.0 12.1 10.7 71 2.8 ESE 22 30 12 16 1027.7 - 0.0
26/04:30pm 16.9 13.1 11.1 68 3.1 ESE 22 30 12 16 1027.7 - 0.0
26/04:00pm 17.6 13.7 9.3 58 4.3 ESE 20 26 11 14 1027.5 - 0.0
26/03:30pm 18.1 14.9 11.1 63 3.8 ESE 19 26 10 14 1027.5 - 0.0
26/03:00pm 17.0 13.5 11.0 68 3.2 ESE 20 24 11 13 1027.4 1027.4 0.0
26/02:30pm 18.0 14.1 10.9 63 3.8 SE 22 32 12 17 1027.3 - 0.0
26/02:00pm 17.4 13.4 10.4 63 3.7 SE 22 28 12 15 1027.4 - 0.0
26/01:30pm 18.2 14.7 10.8 62 4.0 SE 20 26 11 14 1027.5 - 0.0
26/01:00pm 17.7 14.5 10.1 61 4.0 SE 17 22 9 12 1027.7 - 0.0
26/12:30pm 19.2 17.2 8.6 50 5.5 ESE 9 15 5 8 1027.9 - 0.0
26/12:00pm 18.4 15.5 8.0 50 5.3 NE 13 19 7 10 1028.6 1028.6 0.0
26/11:30am 18.5 15.4 8.9 53 5.0 NE 15 20 8 11 1029.0 - 0.0
26/11:00am 17.5 14.3 8.5 55 4.6 NE 15 19 8 10 1029.3 - 0.0
26/10:30am 17.7 14.5 8.5 55 4.7 NE 15 20 8 11 1029.5 - 0.0
26/10:00am 16.7 14.2 9.8 63 3.6 ENE 13 19 7 10 1029.7 - 0.0
26/09:30am 15.3 13.7 10.3 72 2.6 ENE 9 13 5 7 1029.6 - 0.0
26/09:00am 12.8 11.1 9.9 82 1.5 N 9 11 5 6 1029.6 1029.6 0.0
26/08:30am 11.6 10.2 9.6 87 1.0 NNE 7 9 4 5 1029.7 - 0.0
26/07:30am 6.4 5.1 6.2 99 0.1 N 2 9 1 5 1029.2 - 0.0
26/07:00am 6.5 4.3 6.3 99 0.1 N 7 9 4 5 1029.1 - 0.0
26/06:30am 6.9 5.0 6.7 99 0.1 N 6 7 3 4 1028.8 - 0.0
26/06:00am 6.2 4.0 6.0 99 0.1 N 7 11 4 6 1028.7 1028.7 0.0
26/05:44am 6.5 3.9 6.3 99 0.1 N 9 11 5 6 1028.7 - 0.0
26/05:30am 5.8 3.1 5.8 100 0.0 N 9 13 5 7 1028.6 - 0.0
26/05:00am 6.5 4.0 6.5 100 0.0 N 9 11 5 6 1028.6 - 0.0
26/04:30am 6.9 4.9 6.9 100 0.0 N 7 9 4 5 1028.4 - 0.0
26/04:19am 7.7 5.8 7.7 100 0.0 N 7 9 4 5 1028.3 - 0.0
26/04:00am 8.0 7.5 7.8 99 0.1 CALM 0 0 0 0 1028.2 - 0.0
26/03:50am 7.5 6.9 7.5 100 0.0 CALM 0 0 0 0 1028.2 - 0.0
26/03:30am 7.6 5.9 7.6 100 0.0 N 6 6 3 3 1028.2 - 0.0
26/03:15am 8.5 6.8 8.3 99 0.1 N 7 7 4 4 1028.3 - 0.0
26/03:00am 8.1 7.7 8.1 100 0.0 CALM 0 0 0 0 1028.3 1028.3 0.0
26/02:30am 10.1 9.9 9.1 93 0.5 CALM 0 0 0 0 1028.3 - 0.0
26/02:00am 11.2 11.3 10.0 92 0.6 CALM 0 0 0 0 1028.4 - 0.0
26/01:30am 11.4 11.1 10.0 91 0.7 SW 2 9 1 5 1028.5 - 0.0
26/01:00am 11.6 11.7 10.2 91 0.7 CALM 0 0 0 0 1028.4 - 0.0
26/12:30am 12.1 12.3 10.5 90 0.8 CALM 0 4 0 2 1028.4 - 0.0
26/12:00am 11.7 10.7 10.3 91 0.7 NNE 6 7 3 4 1028.4 1028.4 0.0
 
Date/Time
WST
Temp
°C
App
Temp
°C
Dew
Point
Rel
Hum
%
Delta-T
°C
Wind Press
QNH
hPa
Press
MSL
hPa
Rain
since 9 am
mm
Dir
 
Spd
km/h
Gust
km/h
Spd
kts
Gust
kts
25/11:30pm 12.8 13.0 10.5 86 1.2 CALM 0 0 0 0 1028.4 - 0.0
25/11:00pm 13.0 13.1 10.1 82 1.5 CALM 0 0 0 0 1028.7 - 0.0
25/10:30pm 13.1 11.7 9.6 79 1.8 E 7 9 4 5 1028.8 - 0.0
25/10:00pm 12.9 13.1 10.4 85 1.3 CALM 0 0 0 0 1029.1 - 0.0
25/09:30pm 12.9 12.8 9.3 79 1.8 CALM 0 0 0 0 1029.2 - 0.0
25/09:00pm 13.3 11.5 9.6 78 1.9 E 9 9 5 5 1029.1 1029.1 0.0
25/08:30pm 13.2 11.8 9.7 79 1.8 ESE 7 9 4 5 1028.9 - 0.0
25/08:00pm 13.4 11.9 9.2 76 2.1 SE 7 9 4 5 1028.8 - 0.0
25/07:30pm 13.0 10.8 9.2 78 1.9 ESE 11 11 6 6 1028.6 - 0.0
25/07:00pm 13.5 11.7 9.4 76 2.1 ESE 9 9 5 5 1028.6 - 0.0
25/06:30pm 13.9 12.1 9.4 74 2.3 ESE 9 13 5 7 1028.4 - 0.0
25/06:00pm 14.1 11.7 8.5 69 2.8 ESE 11 13 6 7 1028.2 1028.2 0.0
25/05:30pm 14.3 11.8 8.3 67 3.0 ESE 11 15 6 8 1028.0 - 0.0
25/05:00pm 15.0 12.1 8.2 64 3.4 ESE 13 19 7 10 1027.8 - 0.0
25/04:30pm 16.0 12.2 7.6 57 4.2 ESE 17 24 9 13 1027.6 - 0.0
25/04:00pm 15.6 11.2 7.5 58 4.0 SE 20 26 11 14 1027.6 - 0.0
25/03:30pm 16.7 12.4 7.7 55 4.5 ESE 20 26 11 14 1027.7 - 0.0
25/03:00pm 17.0 13.3 7.9 55 4.6 ESE 17 24 9 13 1027.5 1027.5 0.0
25/02:30pm 16.6 12.9 8.1 57 4.3 ESE 17 20 9 11 1027.4 - 0.0
25/02:00pm 17.2 13.5 7.9 54 4.7 ESE 17 20 9 11 1027.6 - 0.0
25/01:30pm 16.9 14.3 7.7 54 4.6 ESE 11 17 6 9 1027.8 - 0.0
25/01:00pm 16.5 13.1 7.7 56 4.4 ESE 15 17 8 9 1028.0 - 0.0
25/12:30pm 16.2 13.2 7.6 56 4.3 ESE 13 17 7 9 1028.4 - 0.0
25/12:00pm 16.8 13.9 8.1 56 4.4 SE 13 15 7 8 1028.9 1028.9 0.0
25/11:30am 16.1 14.6 9.3 64 3.5 SE 7 13 4 7 1029.4 - 0.0
25/11:00am 15.7 15.6 10.8 72 2.6 NNE 2 7 1 4 1029.6 - 0.0
25/10:30am 14.6 13.7 10.6 77 2.1 WNW 6 7 3 4 1029.9 - 0.0
25/10:00am 13.7 12.8 11.4 86 1.2 NNW 7 7 4 4 1030.1 - 0.0
25/09:30am 12.9 12.0 11.4 91 0.8 WNW 7 9 4 5 1030.3 - 0.0
25/09:00am 12.2 11.4 11.0 92 0.6 WSW 6 7 3 4 1030.2 1030.2 1.4
25/08:30am 11.4 10.3 10.8 96 0.3 WNW 7 9 4 5 1030.2 - 1.4
25/08:00am 10.5 10.6 10.1 97 0.2 CALM 0 0 0 0 1029.7 - 1.4
25/07:30am 9.5 9.4 9.3 99 0.1 CALM 0 0 0 0 1029.4 - 1.4
25/07:00am 9.7 9.6 9.3 97 0.2 CALM 0 0 0 0 1029.2 - 1.2
25/06:30am 10.0 8.9 9.8 99 0.1 WNW 6 6 3 3 1029.0 - 1.2
25/06:00am 10.2 9.4 9.8 97 0.2 WNW 4 7 2 4 1029.0 1029.0 1.2
25/05:30am 10.1 8.8 9.9 99 0.1 NW 7 9 4 5 1029.0 - 1.2
25/05:00am 10.5 9.5 10.3 99 0.1 WNW 6 7 3 4 1028.9 - 1.2
25/04:30am 10.5 9.3 10.3 99 0.1 N 7 7 4 4 1028.8 - 1.2
25/04:00am 10.6 8.6 10.2 97 0.2 N 11 13 6 7 1028.9 - 1.2
25/03:30am 10.9 9.8 10.7 99 0.1 NNW 7 7 4 4 1028.8 - 1.2
25/03:00am 10.9 9.8 10.7 99 0.1 NNW 7 9 4 5 1029.0 1029.0 1.2
25/02:30am 10.6 9.1 10.4 99 0.1 N 9 11 5 6 1029.0 - 1.2
25/02:00am 11.2 9.3 10.4 95 0.4 E 11 15 6 8 1029.0 - 1.2
25/01:30am 10.7 9.1 10.3 97 0.2 SE 9 9 5 5 1029.2 - 1.2
25/01:13am 11.3 10.2 10.7 96 0.3 SE 7 9 4 5 1029.4 - 1.2
25/01:00am 11.3 9.5 10.9 97 0.2 ESE 11 15 6 8 1029.7 - 1.2
25/12:45am 11.5 8.5 10.7 95 0.4 ESE 17 20 9 11 1029.7 - 1.0
25/12:44am 11.5 8.6 10.9 96 0.3 ESE 17 20 9 11 1029.7 - 1.0
25/12:30am 11.3 10.2 10.7 96 0.3 E 7 11 4 6 1029.8 - 1.0
25/12:06am 11.3 10.5 10.9 97 0.2 S 6 9 3 5 1030.0 - 0.8
25/12:00am 11.3 10.5 10.9 97 0.2 W 6 9 3 5 1030.0 1030.0 0.8
 
Date/Time
WST
Temp
°C
App
Temp
°C
Dew
Point
Rel
Hum
%
Delta-T
°C
Wind Press
QNH
hPa
Press
MSL
hPa
Rain
since 9 am
mm
Dir
 
Spd
km/h
Gust
km/h
Spd
kts
Gust
kts
24/11:43pm 11.2 9.8 10.8 97 0.2 WNW 9 9 5 5 1030.0 - 0.8
24/11:30pm 11.4 11.3 10.8 96 0.3 N 2 9 1 5 1030.1 - 0.8
24/11:20pm 11.4 11.6 10.6 95 0.4 CALM 0 0 0 0 1030.2 - 0.6
24/11:18pm 11.3 11.5 10.7 96 0.3 CALM 0 0 0 0 1030.2 - 0.6
24/11:00pm 11.2 10.2 10.4 95 0.4 NE 6 9 3 5 1030.2 - 0.6
24/10:45pm 11.2 10.2 10.2 94 0.5 WNW 6 9 3 5 1030.3 - 0.0
24/10:30pm 11.2 11.1 9.6 90 0.8 CALM 0 6 0 3 1030.2 - 0.0
24/10:00pm 11.1 9.9 9.7 91 0.7 NE 6 7 3 4 1030.4 - 0.0
24/09:30pm 11.2 9.9 9.8 91 0.7 ESE 7 11 4 6 1030.3 - 0.0
24/09:01pm 11.6 10.4 10.4 92 0.6 ENE 7 9 4 5 1030.1 - 0.0
24/09:00pm 11.6 10.4 10.4 92 0.6 ENE 7 11 4 6 1030.1 1030.1 0.0
24/08:48pm 11.6 8.5 10.2 91 0.7 E 17 20 9 11 1030.1 - 0.0
24/08:30pm 12.6 9.1 8.6 76 2.0 SE 17 22 9 12 1030.0 - 0.0
24/08:00pm 13.0 9.3 8.1 72 2.4 ESE 17 20 9 11 1030.1 - 0.0
24/07:30pm 13.1 12.3 8.0 71 2.5 ENE 2 7 1 4 1030.4 - 0.0
24/07:00pm 13.4 10.7 7.4 67 2.9 ESE 11 17 6 9 1030.1 - 0.0
24/06:30pm 13.3 10.8 8.0 70 2.6 SE 11 17 6 9 1029.8 - 0.0
24/06:00pm 13.4 9.8 8.4 72 2.5 SSE 17 22 9 12 1029.9 1029.9 0.0
24/05:30pm 13.6 10.6 7.7 67 2.9 SSE 13 19 7 10 1030.0 - 0.0
24/05:00pm 13.9 10.3 6.9 62 3.4 SSE 15 19 8 10 1030.1 - 0.0
24/04:30pm 14.1 10.8 6.6 60 3.6 SE 13 20 7 11 1030.3 - 0.0
24/04:00pm 13.9 11.3 7.8 66 3.0 SSE 11 13 6 7 1030.3 - 0.0
24/03:30pm 13.8 10.3 7.4 65 3.1 SSE 15 24 8 13 1030.3 - 0.0
24/03:00pm 14.5 10.9 8.5 67 3.0 SSE 17 24 9 13 1030.3 1030.3 0.0
24/02:30pm 15.0 11.8 6.8 58 4.0 SE 13 22 7 12 1030.3 - 0.0
24/02:00pm 14.9 11.0 7.1 59 3.8 SE 17 24 9 13 1030.3 - 0.0
24/01:30pm 14.9 10.4 6.1 55 4.2 SE 19 26 10 14 1030.3 - 0.0
24/01:00pm 14.5 10.0 6.9 60 3.7 SE 20 28 11 15 1030.8 - 0.0
24/12:30pm 15.0 10.2 7.5 61 3.7 SE 22 32 12 17 1031.0 - 0.0
24/12:00pm 14.6 10.3 7.7 63 3.4 ESE 20 28 11 15 1031.4 1031.4 0.0
24/11:30am 13.2 10.8 8.8 74 2.2 E 11 15 6 8 1031.7 - 0.0
24/11:00am 13.9 10.8 7.1 63 3.3 SE 13 20 7 11 1032.0 - 0.0
24/10:30am 13.7 9.9 7.6 66 3.0 SSE 17 20 9 11 1032.2 - 0.0
24/10:00am 14.1 10.2 7.1 62 3.4 SE 17 24 9 13 1031.9 - 0.0
24/09:30am 13.9 9.9 6.6 61 3.5 SE 17 26 9 14 1031.9 - 0.0
24/09:00am 13.7 9.3 6.4 61 3.5 ESE 19 26 10 14 1031.7 1031.7 0.8
24/08:30am 13.5 10.4 7.1 65 3.1 SE 13 17 7 9 1031.8 - 0.8
24/08:00am 13.2 9.9 6.2 62 3.3 SE 13 19 7 10 1031.6 - 0.8
24/07:30am 13.0 9.5 5.5 60 3.5 SE 13 17 7 9 1031.2 - 0.8
24/07:00am 12.7 9.7 5.9 63 3.2 SE 11 17 6 9 1030.9 - 0.8
24/06:30am 12.6 9.4 5.0 60 3.5 SSE 11 17 6 9 1030.5 - 0.8

Other Formats:

Comma delimited format used in spreadsheet applications
http://www.bom.gov.au/fwo/IDW60801/IDW60801.94802.axf

JavaScript Object Notation format (JSON) in row-major order
http://www.bom.gov.au/fwo/IDW60801/IDW60801.94802.json